Pagina principale
METAR-TAF:

METAR-TAF

Aeroporti :

Aeroporto di Firenze-Peretola

Firenze, Italia

latitudine: 43-48N, longitudine: 011-12E, altezza: 40 m

Osservazione

Il bollettino è stato emesso 15 minuti fa, alle 15:20 UTC
Vento 8 kt da nord, variando fra nord-ovest e nord/nord-est
Temperature 31°C
Umidità 26%
Pressione 1011 hPa
Visibilità 10 km o più
Poco nuvoloso ad un'altezza di 7000 ft

METAR: LIRQ 131520Z 36008KT 310V030 9999 FEW070 31/09 Q1011

Ora: 17:35 (15:35 UTC)

Previsione

Il bollettino è stato emesso 4 ore e 35 minuti fa, alle 11:00 UTC
Previsione valida dal 13 alle 12 UTC al 14 alle 12 UTC
Vento 10 kt da nord-est
Visibilità 10 km o più
Poco nuvoloso ad un'altezza di 5000 ft
Evoluzione graduale
dal 13 alle 16 UTC al 13 alle 18 UTC
Vento 5 kt da direzioni variabili

TAF: LIRQ 131100Z 1312/1412 04010KT 9999 FEW050 BECMG 1316/1318 VRB05KT

Osservazioni e previsioni meteorologiche di più di 4000 aeroporti (messaggi METAR e TAF).

Le stazioni disponibili sono rappresentate dai dischi gialli e rossi sulla carta.

Puntare il mouse per vedere il nome della stazione.

Clicca sopra per visualizzare le osservazioni e previsioni meteorologiche.

Per cambiare la mappa : fare clic sui pulsanti verdi con una croce nera per ingrandire, il pulsante verde con un trattino per diminuire, o sulla freccia verde per le mappe adiacenti.


METAR-TAF: